Time;durP1;ratioP1;P1;durP2;ratioP2;P2;SDS_P1;SDS_P2;PMS_P1;PMS_P2;Temp;Humidity;BMP_temperature;BMP_pressure;BME280_temperature;BME280_humidity;BME280_pressure;Samples;Min_cycle;Max_cycle;Signal;HPM_P1;HPM_P2
2023/09/02 00:00:08;;;;;;;3.70;2.27;;;21.00;99.90;;;;;;4985409;28;20190;-74
2023/09/02 00:02:34;;;;;;;4.20;2.80;;;21.00;99.90;;;;;;4982494;28;20182;-74
2023/09/02 00:05:00;;;;;;;5.83;3.13;;;21.00;99.90;;;;;;4985358;28;20487;-74
2023/09/02 00:07:25;;;;;;;3.67;2.70;;;21.00;99.90;;;;;;4980191;28;20353;-74
2023/09/02 00:09:51;;;;;;;7.10;2.73;;;21.00;99.90;;;;;;4986941;28;20181;-74
2023/09/02 00:12:16;;;;;;;3.80;2.20;;;21.00;99.90;;;;;;4978309;28;20261;-73
2023/09/02 00:14:42;;;;;;;2.90;2.20;;;21.00;99.90;;;;;;4984939;28;20563;-73
2023/09/02 00:17:07;;;;;;;3.63;2.43;;;21.00;99.90;;;;;;4981183;28;20737;-73
2023/09/02 00:19:34;;;;;;;3.33;2.50;;;21.00;99.90;;;;;;4985237;28;20182;-74
2023/09/02 00:21:59;;;;;;;3.60;2.40;;;21.00;99.90;;;;;;4985810;28;20196;-73
2023/09/02 00:24:25;;;;;;;3.93;2.47;;;21.00;99.90;;;;;;4981551;28;20441;-73
2023/09/02 00:26:50;;;;;;;4.87;2.67;;;21.00;99.90;;;;;;4986343;28;20315;-74
2023/09/02 00:29:16;;;;;;;3.40;2.90;;;21.00;99.90;;;;;;4980864;28;20226;-74
2023/09/02 00:31:41;;;;;;;3.97;2.20;;;21.00;99.90;;;;;;4985694;28;20189;-73
2023/09/02 00:34:07;;;;;;;3.70;2.47;;;21.00;99.90;;;;;;4988068;28;20186;-73
2023/09/02 00:36:32;;;;;;;3.63;2.50;;;21.00;99.90;;;;;;4987541;28;20218;-73
2023/09/02 00:38:59;;;;;;;3.40;2.37;;;21.00;99.90;;;;;;4982168;28;20206;-74
2023/09/02 00:41:37;;;;;;;3.13;2.30;;;20.90;99.90;;;;;;4982951;28;20192;-73
2023/09/02 00:44:03;;;;;;;3.83;2.63;;;20.90;99.90;;;;;;4984547;28;20539;-73
2023/09/02 00:46:29;;;;;;;4.10;2.40;;;20.90;99.90;;;;;;4981972;28;20515;-73
2023/09/02 00:48:54;;;;;;;7.40;2.53;;;20.80;99.90;;;;;;4985786;28;20511;-73
2023/09/02 00:51:20;;;;;;;4.53;2.60;;;20.80;99.90;;;;;;4981418;28;20924;-73
2023/09/02 00:53:45;;;;;;;4.50;2.97;;;20.80;99.90;;;;;;4989670;28;20684;-74
2023/09/02 00:56:15;;;;;;;3.17;2.30;;;20.80;99.90;;;;;;4985709;28;20814;-74
2023/09/02 00:58:41;;;;;;;3.80;2.60;;;20.80;99.90;;;;;;4988424;28;20212;-73
2023/09/02 01:01:08;;;;;;;4.80;2.43;;;20.80;99.90;;;;;;4986117;28;20796;-73
2023/09/02 01:03:37;;;;;;;4.13;2.20;;;20.70;99.90;;;;;;4984529;28;20905;-73
2023/09/02 01:06:04;;;;;;;4.50;2.67;;;20.70;99.90;;;;;;4985642;28;20429;-73
2023/09/02 01:08:30;;;;;;;4.00;2.60;;;20.70;99.90;;;;;;4985948;28;20465;-74
2023/09/02 01:11:01;;;;;;;5.53;3.20;;;20.70;99.90;;;;;;4985655;28;20425;-74
2023/09/02 01:13:28;;;;;;;4.63;3.00;;;20.70;99.90;;;;;;4986966;28;20437;-73
2023/09/02 01:15:54;;;;;;;4.50;2.63;;;20.70;99.90;;;;;;4985683;28;20654;-73
2023/09/02 01:18:24;;;;;;;3.57;2.13;;;20.70;99.90;;;;;;4991260;28;20453;-73
2023/09/02 01:21:07;;;;;;;4.23;2.50;;;20.60;99.90;;;;;;4987534;28;20431;-73
2023/09/02 01:23:41;;;;;;;3.43;2.30;;;20.60;99.90;;;;;;4984182;28;20413;-73
2023/09/02 01:26:44;;;;;;;5.40;3.10;;;20.60;99.90;;;;;;4985236;28;20440;-73
2023/09/02 01:29:18;;;;;;;4.37;2.60;;;20.60;99.90;;;;;;4982850;28;20487;-74
2023/09/02 01:31:45;;;;;;;3.33;2.70;;;20.60;99.90;;;;;;4987177;28;20428;-74
2023/09/02 01:34:11;;;;;;;3.97;2.70;;;20.50;99.90;;;;;;4986769;28;20424;-74
2023/09/02 01:36:39;;;;;;;5.70;2.80;;;20.50;99.90;;;;;;4985522;28;20833;-73
2023/09/02 01:39:06;;;;;;;4.10;2.97;;;20.50;99.90;;;;;;4985174;28;20967;-73
2023/09/02 01:41:32;;;;;;;3.60;2.80;;;20.50;99.90;;;;;;4981982;28;20422;-73
2023/09/02 01:43:59;;;;;;;3.53;2.37;;;20.50;99.90;;;;;;4984889;28;20425;-73
2023/09/02 01:46:25;;;;;;;4.30;2.30;;;20.50;99.90;;;;;;4984720;28;20450;-73
2023/09/02 01:48:51;;;;;;;4.00;2.67;;;20.40;99.90;;;;;;4981459;28;20476;-73
2023/09/02 01:51:17;;;;;;;3.93;2.60;;;20.40;99.90;;;;;;4982266;28;20481;-73
2023/09/02 01:53:43;;;;;;;4.87;2.63;;;20.40;99.90;;;;;;4983233;28;20269;-73
2023/09/02 01:56:09;;;;;;;3.60;2.70;;;20.40;99.90;;;;;;4981745;28;20522;-73
2023/09/02 01:58:35;;;;;;;3.90;2.93;;;20.40;99.90;;;;;;4979356;28;20469;-73
2023/09/02 02:01:00;;;;;;;3.60;2.63;;;20.40;99.90;;;;;;4978620;28;20488;-73
2023/09/02 02:03:36;;;;;;;3.27;2.63;;;20.40;99.90;;;;;;4984010;28;20628;-74
2023/09/02 02:06:04;;;;;;;3.30;2.23;;;20.40;99.90;;;;;;4973900;28;20182;-74
2023/09/02 02:08:44;;;;;;;4.27;2.40;;;20.40;99.90;;;;;;4976846;28;20476;-74
2023/09/02 02:11:11;;;;;;;2.87;2.30;;;20.40;99.90;;;;;;4983211;28;20512;-74
2023/09/02 02:13:38;;;;;;;3.57;2.30;;;20.40;99.90;;;;;;4979938;28;20466;-74
2023/09/02 02:16:04;;;;;;;2.63;2.13;;;20.30;99.90;;;;;;4982462;28;20436;-74
2023/09/02 02:18:30;;;;;;;3.33;2.90;;;20.30;99.90;;;;;;4984655;28;20444;-74
2023/09/02 02:21:05;;;;;;;4.00;2.70;;;20.30;99.90;;;;;;4982215;28;20444;-74
2023/09/02 02:23:31;;;;;;;3.20;2.43;;;20.20;99.90;;;;;;4981911;28;20506;-74
2023/09/02 02:26:04;;;;;;;3.00;2.30;;;20.20;99.90;;;;;;4986817;28;20420;-74
2023/09/02 02:28:30;;;;;;;7.00;2.87;;;20.20;99.90;;;;;;4980453;28;20264;-74
2023/09/02 02:30:58;;;;;;;4.03;2.43;;;20.20;99.90;;;;;;4982882;28;20457;-74
2023/09/02 02:33:27;;;;;;;3.80;2.60;;;20.20;99.90;;;;;;4983622;28;20178;-74
2023/09/02 02:35:52;;;;;;;4.00;2.10;;;20.20;99.90;;;;;;4987116;28;20432;-74
2023/09/02 02:38:18;;;;;;;5.70;2.70;;;20.20;99.90;;;;;;4979342;28;20681;-75
2023/09/02 02:40:43;;;;;;;3.77;2.30;;;20.10;99.90;;;;;;4978916;28;20198;-73
2023/09/02 02:43:09;;;;;;;3.57;2.57;;;20.10;99.90;;;;;;4978060;28;20193;-74
2023/09/02 02:45:35;;;;;;;5.53;2.20;;;20.10;99.90;;;;;;4982227;28;20640;-73
2023/09/02 02:48:00;;;;;;;3.90;2.53;;;20.10;99.90;;;;;;4978186;28;20683;-74
2023/09/02 02:50:26;;;;;;;4.10;2.23;;;20.10;99.90;;;;;;4983502;28;20277;-73
2023/09/02 02:52:51;;;;;;;7.03;2.50;;;20.00;99.90;;;;;;4977058;28;20185;-74
2023/09/02 02:55:17;;;;;;;4.03;2.50;;;20.00;99.90;;;;;;4981324;28;20192;-74
2023/09/02 02:57:47;;;;;;;3.00;2.10;;;20.00;99.90;;;;;;4982033;28;20647;-74
2023/09/02 03:00:13;;;;;;;3.03;2.27;;;20.00;99.90;;;;;;4981194;28;20178;-74
2023/09/02 03:02:39;;;;;;;4.93;2.30;;;20.00;99.90;;;;;;4981225;28;20425;-74
2023/09/02 03:05:05;;;;;;;6.90;2.20;;;20.00;99.90;;;;;;4981032;28;20436;-74
2023/09/02 03:07:30;;;;;;;6.50;2.77;;;20.00;99.90;;;;;;4976382;28;20576;-74
2023/09/02 03:09:56;;;;;;;4.33;2.30;;;20.00;99.90;;;;;;4980893;28;20444;-74
2023/09/02 03:12:22;;;;;;;5.27;2.70;;;20.00;99.90;;;;;;4981709;28;20309;-73
2023/09/02 03:14:48;;;;;;;3.60;2.40;;;20.00;99.90;;;;;;4980866;28;20479;-73
2023/09/02 03:17:14;;;;;;;4.07;2.80;;;20.00;99.90;;;;;;4980914;28;20777;-73
2023/09/02 03:19:44;;;;;;;3.87;2.57;;;20.00;99.90;;;;;;4983494;28;20428;-73
2023/09/02 03:22:10;;;;;;;3.87;2.20;;;20.00;99.90;;;;;;4980568;28;20440;-73
2023/09/02 03:24:36;;;;;;;8.13;2.40;;;20.00;99.90;;;;;;4980596;28;20456;-73
2023/09/02 03:27:03;;;;;;;4.00;2.10;;;20.00;99.90;;;;;;4981676;28;20425;-74
2023/09/02 03:29:29;;;;;;;3.10;2.30;;;20.00;99.90;;;;;;4976462;28;20213;-74
2023/09/02 03:31:55;;;;;;;3.37;2.23;;;20.00;99.90;;;;;;4981704;28;20760;-73
2023/09/02 03:34:20;;;;;;;5.07;2.60;;;20.00;99.90;;;;;;4982982;28;20282;-73
2023/09/02 03:36:46;;;;;;;2.97;2.07;;;20.00;99.90;;;;;;4983087;28;20626;-74
2023/09/02 03:39:11;;;;;;;3.00;2.30;;;19.90;99.90;;;;;;4986801;28;20519;-73
2023/09/02 03:41:37;;;;;;;4.10;2.40;;;19.90;99.90;;;;;;4974492;28;20183;-73
2023/09/02 03:44:04;;;;;;;3.70;2.17;;;19.90;99.90;;;;;;4978621;28;20190;-73
2023/09/02 03:46:29;;;;;;;3.13;2.37;;;19.90;99.90;;;;;;4980764;28;20465;-73
2023/09/02 03:48:55;;;;;;;2.50;1.80;;;19.90;99.90;;;;;;4977529;28;20488;-73
2023/09/02 03:51:21;;;;;;;8.33;2.37;;;19.90;99.90;;;;;;4981550;28;20185;-73
2023/09/02 03:53:46;;;;;;;6.43;2.43;;;19.90;99.90;;;;;;4979147;28;20183;-73
2023/09/02 03:56:12;;;;;;;2.73;2.20;;;19.80;99.90;;;;;;4983817;28;20240;-74
2023/09/02 03:58:38;;;;;;;3.03;2.07;;;19.80;99.90;;;;;;4980694;28;20220;-74
2023/09/02 04:01:03;;;;;;;3.27;2.30;;;19.80;99.90;;;;;;4980856;28;20229;-74
2023/09/02 04:03:31;;;;;;;4.10;2.17;;;19.80;99.90;;;;;;4983369;28;20599;-73
2023/09/02 04:05:57;;;;;;;3.57;2.57;;;19.70;99.90;;;;;;4980630;28;20190;-74
2023/09/02 04:08:25;;;;;;;4.57;2.90;;;19.70;99.90;;;;;;4981798;28;20483;-74
2023/09/02 04:10:52;;;;;;;3.00;2.10;;;19.70;99.90;;;;;;4981739;28;20175;-74
2023/09/02 04:13:25;;;;;;;3.27;2.47;;;19.70;99.90;;;;;;4979775;28;20464;-74
2023/09/02 04:15:55;;;;;;;3.80;2.37;;;19.70;99.90;;;;;;4977140;28;20841;-73
2023/09/02 04:18:21;;;;;;;3.10;2.10;;;19.70;99.90;;;;;;4976537;28;20456;-73
2023/09/02 04:20:47;;;;;;;6.70;2.57;;;19.70;99.90;;;;;;4983277;28;21078;-75
2023/09/02 04:23:12;;;;;;;3.73;2.50;;;19.70;99.90;;;;;;4986510;28;20530;-74
2023/09/02 04:25:52;;;;;;;6.70;2.50;;;19.70;99.90;;;;;;4982884;28;20380;-74
2023/09/02 04:28:21;;;;;;;3.70;2.33;;;19.70;99.90;;;;;;4985370;28;20206;-74
2023/09/02 04:30:48;;;;;;;3.43;2.47;;;19.60;99.90;;;;;;4984005;28;20484;-74
2023/09/02 04:33:14;;;;;;;8.13;2.40;;;19.60;99.90;;;;;;4983919;28;20437;-74
2023/09/02 04:35:45;;;;;;;4.67;2.17;;;19.60;99.90;;;;;;4996827;28;20433;-74
2023/09/02 04:38:11;;;;;;;2.80;2.10;;;19.60;99.90;;;;;;4986364;28;20464;-73
2023/09/02 04:40:40;;;;;;;3.67;2.77;;;19.60;99.90;;;;;;4981246;28;20441;-73
2023/09/02 04:43:08;;;;;;;3.17;2.13;;;19.60;99.90;;;;;;4996398;28;20472;-74
2023/09/02 04:45:35;;;;;;;4.40;2.20;;;19.60;99.90;;;;;;4984236;28;20440;-74
2023/09/02 04:48:02;;;;;;;3.47;2.13;;;19.50;99.90;;;;;;4981590;28;20468;-74
2023/09/02 04:50:28;;;;;;;3.90;2.17;;;19.50;99.90;;;;;;4982362;28;20531;-74
2023/09/02 04:52:53;;;;;;;3.80;1.93;;;19.50;99.90;;;;;;4979807;28;20464;-73
2023/09/02 04:55:24;;;;;;;2.63;2.10;;;19.40;99.90;;;;;;4980429;28;20562;-74
2023/09/02 04:57:51;;;;;;;3.30;1.90;;;19.40;99.90;;;;;;4981713;28;20335;-74
2023/09/02 05:00:17;;;;;;;3.17;2.27;;;19.40;99.90;;;;;;4986103;28;20437;-73
2023/09/02 05:02:48;;;;;;;4.13;2.10;;;19.40;99.90;;;;;;4986322;28;20437;-74
2023/09/02 05:05:16;;;;;;;5.33;2.20;;;19.40;99.90;;;;;;4986711;28;20673;-73
2023/09/02 05:07:42;;;;;;;4.40;2.67;;;19.40;99.90;;;;;;4983653;28;20504;-73
2023/09/02 05:10:08;;;;;;;3.80;2.07;;;19.30;99.90;;;;;;4985742;28;20460;-73
2023/09/02 05:12:34;;;;;;;4.03;2.43;;;19.30;99.90;;;;;;4985474;28;20478;-73
2023/09/02 05:15:00;;;;;;;4.43;2.50;;;19.30;99.90;;;;;;4983531;28;20421;-73
2023/09/02 05:17:26;;;;;;;4.13;2.50;;;19.30;99.90;;;;;;4986869;28;20759;-73
2023/09/02 05:19:52;;;;;;;3.60;2.23;;;19.30;99.90;;;;;;4984696;28;20483;-74
2023/09/02 05:22:17;;;;;;;4.20;2.20;;;19.30;99.90;;;;;;4984528;28;20186;-74
2023/09/02 05:24:43;;;;;;;3.30;2.53;;;19.30;99.90;;;;;;4978838;28;20182;-74
2023/09/02 05:27:08;;;;;;;2.90;1.90;;;19.30;99.90;;;;;;4984478;28;20213;-73
2023/09/02 05:29:34;;;;;;;5.20;2.10;;;19.40;99.90;;;;;;4985729;28;20209;-74
2023/09/02 05:32:00;;;;;;;3.40;2.27;;;19.30;99.90;;;;;;4981051;28;20186;-74
2023/09/02 05:34:25;;;;;;;3.83;2.30;;;19.40;99.90;;;;;;4981978;28;20182;-74
2023/09/02 05:36:51;;;;;;;3.50;2.43;;;19.40;99.90;;;;;;4986964;28;20182;-74
2023/09/02 05:39:16;;;;;;;2.77;2.20;;;19.40;99.90;;;;;;4983438;28;20288;-74
2023/09/02 05:41:45;;;;;;;3.60;2.13;;;19.30;99.90;;;;;;4984503;28;20183;-74
2023/09/02 05:44:10;;;;;;;4.40;2.63;;;19.30;99.90;;;;;;4980629;28;20186;-74
2023/09/02 05:46:36;;;;;;;6.47;2.23;;;19.40;99.90;;;;;;4985372;28;20427;-74
2023/09/02 05:49:01;;;;;;;5.13;2.20;;;19.40;99.90;;;;;;4984076;28;20214;-74
2023/09/02 05:51:28;;;;;;;4.20;2.53;;;19.40;99.90;;;;;;4978100;28;20206;-74
2023/09/02 05:53:54;;;;;;;4.00;2.20;;;19.40;99.90;;;;;;4980604;28;20182;-74
2023/09/02 05:56:20;;;;;;;3.40;3.10;;;19.40;99.90;;;;;;4981069;28;20428;-74
2023/09/02 05:58:45;;;;;;;3.33;2.23;;;19.40;99.90;;;;;;4983437;28;20198;-74
2023/09/02 06:01:11;;;;;;;4.03;2.33;;;19.40;99.90;;;;;;4978764;28;20856;-74
2023/09/02 06:03:37;;;;;;;4.70;2.73;;;19.40;99.90;;;;;;4984258;28;20189;-74
2023/09/02 06:06:11;;;;;;;3.10;2.13;;;19.40;99.90;;;;;;4980908;28;20823;-74
2023/09/02 06:08:37;;;;;;;3.47;2.53;;;19.50;99.90;;;;;;4982270;28;20209;-74
2023/09/02 06:11:03;;;;;;;4.73;2.47;;;19.50;99.90;;;;;;4983064;28;20432;-73
2023/09/02 06:13:29;;;;;;;3.20;2.27;;;19.50;99.90;;;;;;4985377;28;20416;-73
2023/09/02 06:16:05;;;;;;;4.43;2.40;;;19.50;99.90;;;;;;4984479;28;20185;-74
2023/09/02 06:18:31;;;;;;;4.07;2.23;;;19.50;99.90;;;;;;4983936;28;20228;-73
2023/09/02 06:20:57;;;;;;;3.00;2.03;;;19.60;99.90;;;;;;4975630;28;20418;-74
2023/09/02 06:23:27;;;;;;;4.20;2.20;;;19.60;99.90;;;;;;4983028;28;20441;-74
2023/09/02 06:26:00;;;;;;;3.20;2.50;;;19.60;99.90;;;;;;4980568;28;20459;-74
2023/09/02 06:28:26;;;;;;;8.17;2.70;;;19.60;99.90;;;;;;4981207;28;20544;-74
2023/09/02 06:30:52;;;;;;;3.97;2.60;;;19.60;99.90;;;;;;4976449;28;20425;-74
2023/09/02 06:33:21;;;;;;;4.83;2.30;;;19.60;99.90;;;;;;4984805;28;20424;-73
2023/09/02 06:35:48;;;;;;;4.73;2.63;;;19.70;99.90;;;;;;4982886;28;20265;-73
2023/09/02 06:38:14;;;;;;;3.97;2.40;;;19.70;99.90;;;;;;4980306;28;20446;-73
2023/09/02 06:40:39;;;;;;;6.30;3.00;;;19.70;99.90;;;;;;4982283;28;20775;-74
2023/09/02 06:43:05;;;;;;;6.27;3.00;;;19.70;99.90;;;;;;4979482;28;20675;-74
2023/09/02 06:45:30;;;;;;;4.20;2.40;;;19.70;99.90;;;;;;4982637;28;20178;-73
2023/09/02 06:47:56;;;;;;;5.60;2.57;;;19.80;99.90;;;;;;4981261;28;20792;-73
2023/09/02 06:50:22;;;;;;;5.90;2.80;;;19.80;99.90;;;;;;4983142;28;20174;-73
2023/09/02 06:52:48;;;;;;;3.40;2.47;;;19.80;99.90;;;;;;4978949;28;20656;-73
2023/09/02 06:55:15;;;;;;;3.27;2.90;;;19.80;99.90;;;;;;4982759;28;20545;-74
2023/09/02 06:57:44;;;;;;;7.10;2.80;;;19.80;99.90;;;;;;4983791;28;20441;-75
2023/09/02 07:00:11;;;;;;;4.30;2.80;;;19.90;99.90;;;;;;4974253;28;20433;-73
2023/09/02 07:02:36;;;;;;;5.00;2.33;;;19.90;99.90;;;;;;4981353;28;20417;-74
2023/09/02 07:05:02;;;;;;;2.87;2.23;;;20.00;99.90;;;;;;4977567;28;20794;-73
2023/09/02 07:07:28;;;;;;;2.70;2.30;;;20.00;99.90;;;;;;4978263;28;20201;-73
2023/09/02 07:09:54;;;;;;;4.00;2.50;;;20.10;99.90;;;;;;4982935;28;20986;-74
2023/09/02 07:12:19;;;;;;;6.13;2.70;;;20.10;99.90;;;;;;4980824;28;20244;-73
2023/09/02 07:14:45;;;;;;;2.97;2.10;;;20.10;99.90;;;;;;4978554;28;20416;-74
2023/09/02 07:17:11;;;;;;;3.87;2.27;;;20.20;99.90;;;;;;4975461;28;20244;-74
2023/09/02 07:19:36;;;;;;;3.20;2.03;;;20.20;99.90;;;;;;4979241;28;20186;-74
2023/09/02 07:22:02;;;;;;;5.63;2.17;;;20.20;99.90;;;;;;4980316;28;20673;-74
2023/09/02 07:24:28;;;;;;;3.70;2.10;;;20.30;99.90;;;;;;4979487;28;20185;-74
2023/09/02 07:26:54;;;;;;;3.00;2.10;;;20.40;99.90;;;;;;4981323;28;20433;-74
2023/09/02 07:29:20;;;;;;;2.30;1.90;;;20.40;99.90;;;;;;4977863;28;20472;-74
2023/09/02 07:31:45;;;;;;;4.67;2.37;;;20.50;99.90;;;;;;4981986;28;20182;-74
2023/09/02 07:34:11;;;;;;;3.77;2.63;;;20.40;99.90;;;;;;4979606;28;20210;-74
2023/09/02 07:36:37;;;;;;;5.17;2.90;;;20.40;99.90;;;;;;4983175;28;20185;-74
2023/09/02 07:39:02;;;;;;;5.60;2.57;;;20.50;99.90;;;;;;4979014;28;20226;-74
2023/09/02 07:41:28;;;;;;;4.60;2.40;;;20.60;99.90;;;;;;4987727;28;20185;-73
2023/09/02 07:43:54;;;;;;;3.90;2.00;;;20.70;99.90;;;;;;4977810;28;20186;-73
2023/09/02 07:46:19;;;;;;;5.47;2.70;;;20.70;99.90;;;;;;4985035;28;20193;-73
2023/09/02 07:48:48;;;;;;;5.10;4.50;;;20.70;99.90;;;;;;4973078;28;20289;-73
2023/09/02 07:51:16;;;;;;;8.70;2.63;;;20.80;99.90;;;;;;4981367;28;20177;-73
2023/09/02 07:53:41;;;;;;;2.73;2.10;;;20.90;99.90;;;;;;4983752;28;20425;-73
2023/09/02 07:56:07;;;;;;;3.70;3.23;;;20.90;99.90;;;;;;4982571;28;20417;-73
2023/09/02 07:58:32;;;;;;;3.33;2.70;;;20.90;99.90;;;;;;4977343;28;20204;-73
2023/09/02 08:00:58;;;;;;;3.53;2.73;;;21.00;99.90;;;;;;4982978;28;20219;-73
2023/09/02 08:03:24;;;;;;;4.13;2.20;;;21.00;99.90;;;;;;4981865;28;20196;-73
2023/09/02 08:05:50;;;;;;;4.07;2.10;;;20.90;99.90;;;;;;4978598;28;20249;-73
2023/09/02 08:08:15;;;;;;;4.83;2.57;;;21.00;99.90;;;;;;4984300;28;20464;-74
2023/09/02 08:10:41;;;;;;;4.60;1.83;;;21.00;99.90;;;;;;4982985;28;20264;-73
2023/09/02 08:13:07;;;;;;;2.87;2.13;;;20.90;99.90;;;;;;4983789;28;20193;-73
2023/09/02 08:15:33;;;;;;;2.70;2.00;;;20.90;99.90;;;;;;4983743;28;20177;-73
2023/09/02 08:17:58;;;;;;;4.50;2.70;;;21.10;99.90;;;;;;4984118;28;20475;-74
2023/09/02 08:20:25;;;;;;;3.07;1.90;;;21.10;99.90;;;;;;4980673;28;20186;-74
2023/09/02 08:22:51;;;;;;;2.40;1.80;;;21.10;99.90;;;;;;4981649;28;20182;-73
2023/09/02 08:25:16;;;;;;;2.70;2.10;;;21.10;99.90;;;;;;4984952;28;20436;-73
2023/09/02 08:27:46;;;;;;;3.70;2.87;;;21.20;99.90;;;;;;4986569;28;20206;-73
2023/09/02 08:30:13;;;;;;;3.60;2.50;;;21.20;99.90;;;;;;4984387;28;20664;-73
2023/09/02 08:32:38;;;;;;;5.43;2.80;;;21.20;99.90;;;;;;4979066;28;20433;-74
2023/09/02 08:35:06;;;;;;;13.10;11.80;;;21.20;99.90;;;;;;4981840;28;20456;-74
2023/09/02 08:37:32;;;;;;;3.37;2.47;;;21.20;99.90;;;;;;4983866;28;20198;-74
2023/09/02 08:39:58;;;;;;;3.23;2.13;;;21.20;99.90;;;;;;4978311;28;20904;-74
2023/09/02 08:42:25;;;;;;;5.23;2.47;;;21.20;99.90;;;;;;4986622;28;20182;-74
2023/09/02 08:44:53;;;;;;;3.73;2.20;;;21.40;99.90;;;;;;4984300;28;20310;-74
2023/09/02 08:47:19;;;;;;;3.70;2.27;;;21.30;99.90;;;;;;4980652;28;20529;-74
2023/09/02 08:49:45;;;;;;;4.43;3.13;;;21.30;99.90;;;;;;4984897;28;20504;-73
2023/09/02 08:52:13;;;;;;;6.20;3.07;;;21.40;99.90;;;;;;4984508;28;20425;-73
2023/09/02 08:54:40;;;;;;;3.60;3.00;;;21.50;99.90;;;;;;4985243;28;20418;-74
2023/09/02 08:57:07;;;;;;;4.43;3.13;;;21.50;99.90;;;;;;4984115;28;20431;-73
2023/09/02 08:59:33;;;;;;;3.63;2.50;;;21.60;99.90;;;;;;4979625;28;20438;-73
2023/09/02 09:01:59;;;;;;;3.60;2.50;;;21.60;99.90;;;;;;4982188;28;20790;-73
2023/09/02 09:04:29;;;;;;;2.67;2.00;;;21.60;99.90;;;;;;4983688;28;20503;-73
2023/09/02 09:06:55;;;;;;;3.63;2.80;;;21.60;99.90;;;;;;4981095;28;20413;-74
2023/09/02 09:09:22;;;;;;;3.77;2.80;;;21.70;99.90;;;;;;4978355;28;20505;-74
2023/09/02 09:11:48;;;;;;;3.60;2.67;;;21.90;99.90;;;;;;4980863;28;20586;-74
2023/09/02 09:14:22;;;;;;;3.30;2.10;;;21.90;99.90;;;;;;4979068;28;20510;-74
2023/09/02 09:16:51;;;;;;;4.33;2.50;;;22.00;99.90;;;;;;4978833;28;20923;-74
2023/09/02 09:19:18;;;;;;;3.57;2.87;;;22.00;99.90;;;;;;4978537;28;20539;-74
2023/09/02 09:21:46;;;;;;;4.83;3.80;;;22.00;99.90;;;;;;4986016;28;20417;-74
2023/09/02 09:24:12;;;;;;;3.40;2.70;;;22.10;99.90;;;;;;4983751;28;20446;-74
2023/09/02 09:26:40;;;;;;;4.10;2.77;;;22.10;99.90;;;;;;4986084;28;20452;-74
2023/09/02 09:29:11;;;;;;;3.90;2.30;;;22.20;99.90;;;;;;4983206;28;20983;-74
2023/09/02 09:31:37;;;;;;;2.90;2.40;;;22.30;99.90;;;;;;4986478;28;20413;-74
2023/09/02 09:34:03;;;;;;;5.23;2.53;;;22.30;99.90;;;;;;4982621;28;21195;-74
2023/09/02 09:36:30;;;;;;;3.40;2.47;;;22.30;99.90;;;;;;4986429;28;20227;-74
2023/09/02 09:38:58;;;;;;;4.23;2.40;;;22.30;99.90;;;;;;4980644;28;20677;-73
2023/09/02 09:41:25;;;;;;;3.90;2.70;;;22.40;99.90;;;;;;4978606;28;20449;-73
2023/09/02 09:44:15;;;;;;;4.90;3.40;;;22.40;99.90;;;;;;4985624;28;20871;-74
2023/09/02 09:46:51;;;;;;;4.83;3.10;;;22.50;99.90;;;;;;4983277;28;20966;-74
2023/09/02 09:49:24;;;;;;;6.57;2.53;;;22.50;99.90;;;;;;4984190;28;20456;-73
2023/09/02 09:52:01;;;;;;;2.63;2.23;;;22.50;99.90;;;;;;4982231;28;21002;-73
2023/09/02 09:54:41;;;;;;;3.80;2.50;;;22.60;99.90;;;;;;4981236;28;20500;-73
2023/09/02 09:57:14;;;;;;;3.90;2.60;;;22.70;99.90;;;;;;4981235;28;20412;-73
2023/09/02 09:59:51;;;;;;;7.97;2.07;;;22.80;99.90;;;;;;4983774;28;20990;-73
2023/09/02 10:02:18;;;;;;;3.30;2.53;;;22.80;99.90;;;;;;4984135;28;20428;-73
2023/09/02 10:04:53;;;;;;;3.27;2.40;;;22.80;99.90;;;;;;4980337;28;20811;-73
2023/09/02 10:07:24;;;;;;;2.90;2.27;;;22.90;99.90;;;;;;4986165;28;20420;-73
2023/09/02 10:09:50;;;;;;;5.77;3.80;;;23.00;99.90;;;;;;4984426;28;20464;-73
2023/09/02 10:12:16;;;;;;;3.30;2.40;;;23.10;99.90;;;;;;4983628;28;20464;-73
2023/09/02 10:14:46;;;;;;;6.80;2.70;;;23.10;99.90;;;;;;4982279;28;20178;-73
2023/09/02 10:17:12;;;;;;;3.80;2.43;;;23.10;99.90;;;;;;4986683;28;20489;-73
2023/09/02 10:19:39;;;;;;;4.67;4.07;;;23.10;99.90;;;;;;4984596;28;20433;-73
2023/09/02 10:22:05;;;;;;;3.10;2.30;;;23.30;99.90;;;;;;4981108;28;20471;-73
2023/09/02 10:24:51;;;;;;;3.67;2.63;;;23.40;99.90;;;;;;4985170;28;20440;-74
2023/09/02 10:27:22;;;;;;;5.73;2.37;;;23.50;99.90;;;;;;4977177;28;20417;-74
2023/09/02 10:29:54;;;;;;;4.20;2.80;;;23.60;99.90;;;;;;4984252;28;20526;-74
2023/09/02 10:32:24;;;;;;;3.20;2.70;;;23.60;99.90;;;;;;4982621;28;20845;-74
2023/09/02 10:35:16;;;;;;;3.37;2.13;;;23.70;99.90;;;;;;4985053;28;20450;-74
2023/09/02 10:37:56;;;;;;;5.87;2.20;;;23.80;99.90;;;;;;4977059;28;21085;-74
2023/09/02 10:40:27;;;;;;;3.40;2.67;;;24.00;99.90;;;;;;4981481;28;20457;-74
2023/09/02 10:42:56;;;;;;;6.37;2.83;;;24.10;99.90;;;;;;4982855;28;20432;-74
2023/09/02 10:45:22;;;;;;;5.07;3.00;;;24.10;99.90;;;;;;4981655;28;20503;-74
2023/09/02 10:47:49;;;;;;;3.50;2.70;;;24.00;99.90;;;;;;4988628;28;20865;-73
2023/09/02 10:50:17;;;;;;;2.60;2.10;;;24.00;99.90;;;;;;4981539;28;20835;-73
2023/09/02 10:52:43;;;;;;;3.80;2.60;;;24.10;99.90;;;;;;4980521;28;20492;-73
2023/09/02 10:55:10;;;;;;;2.93;2.33;;;24.20;99.90;;;;;;4981283;28;20429;-74
2023/09/02 10:57:46;;;;;;;3.80;2.97;;;24.30;99.90;;;;;;4983078;28;20281;-74
2023/09/02 11:00:12;;;;;;;4.60;2.50;;;24.40;99.90;;;;;;4984720;28;20421;-74
2023/09/02 11:02:39;;;;;;;3.17;2.33;;;24.50;99.90;;;;;;4978788;28;20836;-74
2023/09/02 11:05:05;;;;;;;2.93;2.50;;;24.60;99.90;;;;;;4987150;28;20427;-74
2023/09/02 11:07:33;;;;;;;3.17;2.60;;;24.70;99.90;;;;;;4981833;28;20429;-74
2023/09/02 11:10:00;;;;;;;2.97;2.20;;;24.70;99.90;;;;;;4985676;28;20473;-74
2023/09/02 11:12:27;;;;;;;2.63;2.10;;;24.80;99.90;;;;;;4979735;28;20444;-73
2023/09/02 11:15:08;;;;;;;3.90;2.63;;;24.90;99.90;;;;;;4987392;28;20531;-73
2023/09/02 11:17:40;;;;;;;3.00;2.40;;;24.90;99.90;;;;;;4980672;28;20795;-74
2023/09/02 11:20:08;;;;;;;4.57;2.53;;;25.00;99.90;;;;;;4978593;28;20573;-73
2023/09/02 11:22:56;;;;;;;3.03;2.27;;;25.00;99.90;;;;;;4978367;28;20413;-74
2023/09/02 11:25:34;;;;;;;3.23;2.30;;;25.10;99.90;;;;;;4980012;28;20436;-74
2023/09/02 11:28:19;;;;;;;3.53;2.17;;;25.20;99.90;;;;;;4980132;28;20440;-73
2023/09/02 11:31:16;;;;;;;2.83;2.30;;;25.20;99.90;;;;;;4984217;28;20425;-73
2023/09/02 11:33:46;;;;;;;2.60;2.00;;;25.30;99.90;;;;;;4981910;28;20437;-73
2023/09/02 11:36:17;;;;;;;3.60;2.47;;;25.40;99.90;;;;;;4999899;28;20988;-74
2023/09/02 11:38:43;;;;;;;3.33;2.73;;;25.50;99.90;;;;;;4984181;28;20432;-73
2023/09/02 11:41:18;;;;;;;5.10;3.17;;;25.50;99.90;;;;;;4983511;28;20447;-73
2023/09/02 11:43:44;;;;;;;3.40;2.60;;;25.60;99.90;;;;;;4983720;28;20427;-74
2023/09/02 11:46:10;;;;;;;3.87;2.63;;;25.70;99.90;;;;;;4986975;28;20803;-73
2023/09/02 11:48:35;;;;;;;3.37;2.20;;;25.80;99.90;;;;;;4981156;28;20475;-73
2023/09/02 11:51:01;;;;;;;3.93;2.40;;;25.90;99.90;;;;;;4986616;28;20612;-74
2023/09/02 11:53:31;;;;;;;4.40;3.80;;;26.10;99.90;;;;;;4980349;28;20174;-73
2023/09/02 11:55:57;;;;;;;3.30;2.27;;;26.30;99.90;;;;;;4986702;28;20174;-74
2023/09/02 11:58:23;;;;;;;4.93;4.00;;;26.40;99.90;;;;;;4985888;28;20452;-74
2023/09/02 12:00:49;;;;;;;6.10;2.80;;;26.70;99.90;;;;;;4987467;28;20435;-74
2023/09/02 12:03:23;;;;;;;6.17;5.57;;;26.90;99.90;;;;;;4984050;28;20527;-74
2023/09/02 12:05:50;;;;;;;3.17;2.27;;;27.10;99.90;;;;;;4983839;28;20178;-74
2023/09/02 12:08:17;;;;;;;3.80;2.70;;;27.60;99.90;;;;;;4986399;28;20475;-74
2023/09/02 12:10:45;;;;;;;3.33;2.33;;;28.10;99.90;;;;;;4981215;28;20487;-74
2023/09/02 12:13:11;;;;;;;3.60;2.53;;;28.50;99.90;;;;;;4980009;28;20487;-73
2023/09/02 12:15:36;;;;;;;4.70;4.20;;;28.80;99.90;;;;;;4982621;28;20425;-73
2023/09/02 12:18:02;;;;;;;3.47;2.90;;;29.20;99.90;;;;;;4985512;28;20213;-73
2023/09/02 12:20:28;;;;;;;3.70;2.73;;;29.50;99.90;;;;;;4981514;28;20186;-73
2023/09/02 12:22:54;;;;;;;3.10;2.70;;;29.70;99.90;;;;;;4985095;28;20425;-73
2023/09/02 12:25:22;;;;;;;3.53;2.57;;;29.90;99.90;;;;;;4980141;28;20459;-73
2023/09/02 12:27:48;;;;;;;3.53;2.70;;;30.20;99.90;;;;;;4978409;28;20208;-73
2023/09/02 12:30:30;;;;;;;4.70;2.37;;;30.30;99.90;;;;;;4981441;28;20531;-73
2023/09/02 12:32:57;;;;;;;3.10;2.43;;;30.60;99.90;;;;;;4984616;28;20539;-73
2023/09/02 12:35:23;;;;;;;4.90;3.00;;;30.70;99.90;;;;;;4977515;28;20841;-73
2023/09/02 12:38:06;;;;;;;3.13;2.47;;;31.10;99.90;;;;;;4983620;28;20436;-73
2023/09/02 12:40:33;;;;;;;3.87;2.80;;;31.30;99.90;;;;;;4982069;28;20281;-73
2023/09/02 12:43:00;;;;;;;4.13;2.20;;;31.50;99.90;;;;;;4985020;28;20479;-73
2023/09/02 12:45:28;;;;;;;5.20;2.73;;;31.70;99.90;;;;;;4984129;28;20444;-74
2023/09/02 12:47:56;;;;;;;2.90;2.27;;;31.80;99.90;;;;;;4984841;28;20452;-73
2023/09/02 12:50:23;;;;;;;3.77;2.77;;;32.00;99.90;;;;;;4986969;28;20424;-73